createdAt,value
2018-06-10T00:02:45.958Z,100750.33
2018-06-10T00:07:42.061Z,100743.34
2018-06-10T00:17:31.387Z,100728.63
2018-06-10T00:22:26.141Z,100717.62
2018-06-10T00:27:20.787Z,100717.00
2018-06-10T00:32:15.267Z,100694.67
2018-06-10T00:37:09.821Z,100694.66
2018-06-10T00:42:04.690Z,100679.80
2018-06-10T00:46:59.180Z,100677.11
2018-06-10T00:51:53.724Z,100680.13
2018-06-10T00:56:52.014Z,100680.29
2018-06-10T01:01:46.724Z,100681.84
2018-06-10T01:06:41.855Z,100676.16
2018-06-10T01:11:37.527Z,100684.06
2018-06-10T01:16:32.011Z,100678.36
2018-06-10T01:21:26.689Z,100666.41
2018-06-10T01:26:26.459Z,100665.55
2018-06-10T01:31:20.947Z,100654.58
2018-06-10T01:36:17.630Z,100649.02
2018-06-10T01:41:12.324Z,100641.26
2018-06-10T01:46:06.817Z,100620.91
2018-06-10T01:51:01.355Z,100611.80
2018-06-10T01:55:55.812Z,100606.22
2018-06-10T02:00:51.068Z,100605.16
2018-06-10T02:05:45.870Z,100599.37
2018-06-10T02:10:40.790Z,100586.95
2018-06-10T02:15:35.341Z,100583.67
2018-06-10T02:20:30.464Z,100584.57
2018-06-10T02:25:25.453Z,100575.94
2018-06-10T02:30:19.945Z,100575.72
2018-06-10T02:35:14.493Z,100573.62
2018-06-10T02:40:09.005Z,100574.08
2018-06-10T02:45:04.340Z,100580.48
2018-06-10T02:49:58.875Z,100579.95
2018-06-10T02:54:53.548Z,100590.89
2018-06-10T02:59:48.070Z,100594.17
2018-06-10T03:04:42.549Z,100598.84
2018-06-10T03:09:37.143Z,100591.83
2018-06-10T03:14:31.638Z,100590.70
2018-06-10T03:19:25.880Z,100591.22
2018-06-10T03:24:20.491Z,100595.51
2018-06-10T03:29:15.105Z,100588.01
2018-06-10T03:34:09.851Z,100593.84
2018-06-10T03:39:06.314Z,100595.93
2018-06-10T03:44:00.949Z,100604.45
2018-06-10T03:48:56.556Z,100607.27
2018-06-10T03:53:51.190Z,100609.19
2018-06-10T03:58:45.759Z,100598.99
2018-06-10T04:03:40.406Z,100605.19
2018-06-10T04:08:35.717Z,100613.47
2018-06-10T04:13:30.485Z,100608.66
2018-06-10T04:18:25.412Z,100614.95
2018-06-10T04:23:20.444Z,100614.05
2018-06-10T04:28:14.948Z,100613.39
2018-06-10T04:33:09.177Z,100622.74
2018-06-10T04:38:03.836Z,100631.28
2018-06-10T04:42:58.308Z,100638.97
2018-06-10T04:47:52.989Z,100641.08
2018-06-10T04:52:47.451Z,100642.52
2018-06-10T04:57:41.908Z,100642.52
2018-06-10T05:02:36.351Z,100637.83
2018-06-10T05:07:32.148Z,100643.13
2018-06-10T05:12:26.756Z,100647.99
2018-06-10T05:17:21.178Z,100656.14
2018-06-10T05:22:15.914Z,100655.49
2018-06-10T05:27:11.081Z,100653.61
2018-06-10T05:32:05.789Z,100660.01
2018-06-10T05:37:00.439Z,100670.70
2018-06-10T05:41:55.265Z,100667.84
2018-06-10T05:46:50.379Z,100658.09
2018-06-10T05:51:44.882Z,100669.58
2018-06-10T05:56:39.454Z,100669.43
2018-06-10T06:01:34.171Z,100670.22
2018-06-10T06:06:33.452Z,100684.17
2018-06-10T06:11:28.375Z,100685.53
2018-06-10T06:16:23.279Z,100690.27
2018-06-10T06:21:18.019Z,100700.17
2018-06-10T06:26:12.524Z,100701.42
2018-06-10T06:31:07.290Z,100700.33
2018-06-10T06:36:01.892Z,100701.13
2018-06-10T06:40:56.537Z,100697.17
2018-06-10T06:45:51.181Z,100694.20
2018-06-10T06:50:45.940Z,100691.79
2018-06-10T06:55:40.622Z,100689.64
2018-06-10T07:00:35.403Z,100692.22
2018-06-10T07:05:31.083Z,100687.92
2018-06-10T07:10:25.778Z,100685.81
2018-06-10T07:15:20.368Z,100681.08
2018-06-10T07:20:14.721Z,100677.27
2018-06-10T07:25:09.307Z,100675.94
2018-06-10T07:30:04.468Z,100676.26
2018-06-10T07:34:58.974Z,100678.40
2018-06-10T07:39:53.463Z,100688.14
2018-06-10T07:44:48.190Z,100694.14
2018-06-10T07:49:42.791Z,100698.44
2018-06-10T07:54:37.490Z,100691.08
2018-06-10T07:59:32.175Z,100699.15
2018-06-10T08:04:26.833Z,100690.56
2018-06-10T08:09:21.896Z,100686.83
2018-06-10T08:14:16.428Z,100687.53
2018-06-10T08:19:11.348Z,100690.72
2018-06-10T08:24:05.885Z,100695.83
2018-06-10T08:29:00.368Z,100699.33
2018-06-10T08:33:54.983Z,100691.27
2018-06-10T08:38:49.450Z,100697.24
2018-06-10T08:43:43.959Z,100694.63
2018-06-10T08:48:38.622Z,100692.50
2018-06-10T08:53:33.428Z,100702.20
2018-06-10T08:58:28.463Z,100701.98
2018-06-10T09:03:23.169Z,100701.13
2018-06-10T09:08:17.663Z,100698.71
2018-06-10T09:13:12.303Z,100702.66
2018-06-10T09:18:06.793Z,100710.23
2018-06-10T09:23:01.534Z,100703.45
2018-06-10T09:27:56.301Z,100702.22
2018-06-10T09:32:51.396Z,100701.97
2018-06-10T09:37:46.483Z,100704.23
2018-06-10T09:42:41.239Z,100698.77
2018-06-10T09:47:35.958Z,100697.44
2018-06-10T09:52:30.992Z,100707.05
2018-06-10T09:57:26.595Z,100710.03
2018-06-10T10:02:21.646Z,100709.64
2018-06-10T10:07:16.604Z,100699.78
2018-06-10T10:12:11.104Z,100700.41
2018-06-10T10:17:05.697Z,100699.09
2018-06-10T10:22:01.063Z,100690.22
2018-06-10T10:26:56.279Z,100693.61
2018-06-10T10:31:51.133Z,100694.09
2018-06-10T10:36:46.010Z,100691.97
2018-06-10T10:41:41.214Z,100699.20
2018-06-10T10:46:35.845Z,100689.25
2018-06-10T10:51:30.789Z,100697.38
2018-06-10T10:56:25.665Z,100686.27
2018-06-10T11:01:20.471Z,100688.28
2018-06-10T11:06:14.941Z,100686.34
2018-06-10T11:11:09.981Z,100683.06
2018-06-10T11:16:05.128Z,100677.65
2018-06-10T11:20:59.911Z,100678.39
2018-06-10T11:25:54.685Z,100671.71
2018-06-10T11:30:49.691Z,100675.66
2018-06-10T11:35:44.586Z,100679.47
2018-06-10T11:40:39.854Z,100677.49
2018-06-10T11:45:36.519Z,100679.19
2018-06-10T11:50:32.117Z,100679.45
2018-06-10T11:55:27.443Z,100679.08
2018-06-10T12:00:22.556Z,100686.48
2018-06-10T12:05:17.468Z,100682.30
2018-06-10T12:10:12.422Z,100683.44
2018-06-10T12:15:07.632Z,100674.19
2018-06-10T12:20:02.366Z,100669.84
2018-06-10T12:24:57.285Z,100658.20
2018-06-10T12:29:52.014Z,100657.05
2018-06-10T12:34:46.749Z,100653.55
2018-06-10T12:39:41.588Z,100648.33
2018-06-10T12:44:36.540Z,100649.02
2018-06-10T12:49:31.309Z,100644.90
2018-06-10T12:54:26.764Z,100635.41
2018-06-10T12:59:21.836Z,100621.84
2018-06-10T13:04:16.893Z,100630.37
2018-06-10T13:09:12.102Z,100631.08
2018-06-10T13:14:06.886Z,100635.79
2018-06-10T13:19:01.672Z,100638.68
2018-06-10T13:23:56.418Z,100623.55
2018-06-10T13:28:51.198Z,100634.42
2018-06-10T13:33:46.088Z,100623.97
2018-06-10T13:38:41.092Z,100626.56
2018-06-10T13:43:35.999Z,100627.50
2018-06-10T13:48:31.214Z,100624.66
2018-06-10T13:53:26.278Z,100623.50
2018-06-10T13:58:21.090Z,100624.75
2018-06-10T14:03:16.857Z,100613.32
2018-06-10T14:08:13.615Z,100616.67
2018-06-10T14:13:09.185Z,100615.59
2018-06-10T14:18:03.960Z,100617.59
2018-06-10T14:22:59.486Z,100608.08
2018-06-10T14:27:54.634Z,100604.22
2018-06-10T14:32:49.576Z,100614.39
2018-06-10T14:37:44.391Z,100614.44
2018-06-10T14:42:39.733Z,100614.28
2018-06-10T14:47:34.756Z,100607.77
2018-06-10T14:52:29.612Z,100610.37
2018-06-10T14:57:24.542Z,100600.70
2018-06-10T15:02:19.714Z,100591.81
2018-06-10T15:07:14.247Z,100579.72
2018-06-10T15:12:09.215Z,100583.63
2018-06-10T15:17:04.031Z,100580.05
2018-06-10T15:21:59.007Z,100572.09
2018-06-10T15:26:54.207Z,100559.31
2018-06-10T15:31:49.058Z,100563.06
2018-06-10T15:36:43.825Z,100562.34
2018-06-10T15:41:39.477Z,100562.04
2018-06-10T15:46:34.309Z,100555.02
2018-06-10T15:51:29.261Z,100539.05
2018-06-10T15:56:25.605Z,100550.80
2018-06-10T16:01:20.213Z,100544.52
2018-06-10T16:06:15.172Z,100554.59
2018-06-10T16:11:10.190Z,100535.92
2018-06-10T16:16:05.053Z,100537.59
2018-06-10T16:20:59.935Z,100537.70
2018-06-10T16:25:55.439Z,100549.51
2018-06-10T16:30:50.056Z,100549.71
2018-06-10T16:35:44.551Z,100554.20
2018-06-10T16:40:39.172Z,100557.44
2018-06-10T16:45:33.896Z,100546.66
2018-06-10T16:50:28.764Z,100554.61
2018-06-10T16:55:24.038Z,100555.56
2018-06-10T17:00:19.074Z,100559.89
2018-06-10T17:05:14.327Z,100567.41
2018-06-10T17:10:09.073Z,100573.27
2018-06-10T17:15:03.552Z,100573.75
2018-06-10T17:19:58.084Z,100562.87
2018-06-10T17:24:52.626Z,100565.42
2018-06-10T17:29:47.327Z,100556.98
2018-06-10T17:34:41.877Z,100569.84
2018-06-10T17:39:36.513Z,100574.97
2018-06-10T17:44:31.249Z,100569.95
2018-06-10T17:49:26.020Z,100581.31
2018-06-10T17:54:20.462Z,100574.89
2018-06-10T17:59:15.031Z,100560.83
2018-06-10T18:04:10.871Z,100553.02
2018-06-10T18:09:08.644Z,100549.44
2018-06-10T18:14:03.908Z,100558.55
2018-06-10T18:18:58.674Z,100551.67
2018-06-10T18:23:53.346Z,100560.73
2018-06-10T18:28:48.893Z,100572.30
2018-06-10T18:33:43.582Z,100571.98
2018-06-10T18:38:38.162Z,100584.08
2018-06-10T18:43:32.655Z,100581.76
2018-06-10T18:48:27.748Z,100578.75
2018-06-10T18:53:22.613Z,100592.01
2018-06-10T18:58:17.223Z,100611.67
2018-06-10T19:03:11.965Z,100619.31
2018-06-10T19:08:08.116Z,100608.89
2018-06-10T19:13:02.529Z,100605.38
2018-06-10T19:17:57.078Z,100610.37
2018-06-10T19:22:51.710Z,100611.23
2018-06-10T19:27:46.221Z,100629.34
2018-06-10T19:32:40.720Z,100626.35
2018-06-10T19:37:36.507Z,100626.87
2018-06-10T19:42:31.086Z,100638.06
2018-06-10T19:47:25.849Z,100638.80
2018-06-10T19:52:20.556Z,100641.67
2018-06-10T19:57:15.088Z,100640.86
2018-06-10T20:02:10.354Z,100652.84
2018-06-10T20:07:04.617Z,100649.81
2018-06-10T20:11:59.397Z,100652.86
2018-06-10T20:16:53.859Z,100655.23
2018-06-10T20:21:48.103Z,100653.55
2018-06-10T20:26:42.704Z,100663.84
2018-06-10T20:31:37.194Z,100660.60
2018-06-10T20:36:32.036Z,100661.25
2018-06-10T20:41:26.858Z,100653.99
2018-06-10T20:46:21.716Z,100662.39
2018-06-10T20:51:16.427Z,100668.98
2018-06-10T20:56:11.857Z,100671.65
2018-06-10T21:01:07.020Z,100666.39
2018-06-10T21:06:02.544Z,100676.16
2018-06-10T21:10:58.257Z,100672.41
2018-06-10T21:15:53.447Z,100665.44
2018-06-10T21:20:48.686Z,100655.15
2018-06-10T21:25:43.392Z,100662.34
2018-06-10T21:30:38.091Z,100664.50
2018-06-10T21:35:34.391Z,100670.53
2018-06-10T21:40:29.419Z,100675.92
2018-06-10T21:45:24.509Z,100676.04
2018-06-10T21:50:22.892Z,100682.92
2018-06-10T21:55:17.483Z,100680.02
2018-06-10T22:00:25.978Z,100681.35
2018-06-10T22:05:20.882Z,100690.03
2018-06-10T22:15:09.311Z,100707.58
2018-06-10T22:20:03.888Z,100712.25
2018-06-10T22:24:58.487Z,100715.75
2018-06-10T22:29:53.177Z,100718.42
2018-06-10T22:34:47.428Z,100719.70
2018-06-10T22:39:42.434Z,100721.45
2018-06-10T22:44:37.038Z,100719.92
2018-06-10T22:49:31.516Z,100716.52
2018-06-10T22:54:44.383Z,100719.45
2018-06-10T22:59:39.474Z,100722.30
2018-06-10T23:04:34.010Z,100714.70
2018-06-10T23:09:28.451Z,100712.68
2018-06-10T23:14:23.628Z,100717.02
2018-06-10T23:19:18.428Z,100730.98
2018-06-10T23:24:12.894Z,100731.14
2018-06-10T23:29:07.324Z,100731.27
2018-06-10T23:34:02.174Z,100726.69
2018-06-10T23:38:56.780Z,100735.85
2018-06-10T23:43:51.385Z,100736.28
2018-06-10T23:48:46.101Z,100726.98
2018-06-10T23:53:40.669Z,100729.42
2018-06-10T23:58:35.238Z,100736.35
